sensor_id;sensor_type;location;lat;lon;timestamp;temperature;humidity
4647;DHT22;2336;47.822;7.564;2023-04-29T00:02:18;14.00;99.90
4647;DHT22;2336;47.822;7.564;2023-04-29T00:04:45;14.00;99.90
4647;DHT22;2336;47.822;7.564;2023-04-29T00:07:12;14.00;99.90
4647;DHT22;2336;47.822;7.564;2023-04-29T00:09:40;14.00;99.90
4647;DHT22;2336;47.822;7.564;2023-04-29T00:12:07;13.90;99.90
4647;DHT22;2336;47.822;7.564;2023-04-29T00:14:34;13.90;99.90
4647;DHT22;2336;47.822;7.564;2023-04-29T00:17:01;13.90;99.90
4647;DHT22;2336;47.822;7.564;2023-04-29T00:19:29;13.90;99.90
4647;DHT22;2336;47.822;7.564;2023-04-29T00:21:55;13.90;99.90
4647;DHT22;2336;47.822;7.564;2023-04-29T00:24:22;13.90;99.90
4647;DHT22;2336;47.822;7.564;2023-04-29T00:26:49;13.90;99.90
4647;DHT22;2336;47.822;7.564;2023-04-29T00:29:16;13.80;99.90
4647;DHT22;2336;47.822;7.564;2023-04-29T00:31:43;13.80;99.90
4647;DHT22;2336;47.822;7.564;2023-04-29T00:34:10;13.70;99.90
4647;DHT22;2336;47.822;7.564;2023-04-29T00:36:38;13.70;99.90
4647;DHT22;2336;47.822;7.564;2023-04-29T00:39:04;13.70;99.90
4647;DHT22;2336;47.822;7.564;2023-04-29T00:41:32;13.60;99.90
4647;DHT22;2336;47.822;7.564;2023-04-29T00:43:59;13.60;99.90
4647;DHT22;2336;47.822;7.564;2023-04-29T00:46:25;13.60;99.90
4647;DHT22;2336;47.822;7.564;2023-04-29T00:48:52;13.60;99.90
4647;DHT22;2336;47.822;7.564;2023-04-29T00:51:18;13.60;99.90
4647;DHT22;2336;47.822;7.564;2023-04-29T00:53:47;13.70;99.90
4647;DHT22;2336;47.822;7.564;2023-04-29T00:56:14;13.70;99.90
4647;DHT22;2336;47.822;7.564;2023-04-29T00:58:42;13.70;99.90
4647;DHT22;2336;47.822;7.564;2023-04-29T01:01:14;13.80;99.90
4647;DHT22;2336;47.822;7.564;2023-04-29T01:03:41;13.80;99.90
4647;DHT22;2336;47.822;7.564;2023-04-29T01:06:15;13.80;99.90
4647;DHT22;2336;47.822;7.564;2023-04-29T01:09:01;13.90;99.90
4647;DHT22;2336;47.822;7.564;2023-04-29T01:11:34;13.90;99.90
4647;DHT22;2336;47.822;7.564;2023-04-29T01:14:04;13.90;99.90
4647;DHT22;2336;47.822;7.564;2023-04-29T01:16:36;13.90;99.90
4647;DHT22;2336;47.822;7.564;2023-04-29T01:19:14;13.90;99.90
4647;DHT22;2336;47.822;7.564;2023-04-29T01:21:45;13.90;99.90
4647;DHT22;2336;47.822;7.564;2023-04-29T01:24:14;13.90;99.90
4647;DHT22;2336;47.822;7.564;2023-04-29T01:26:43;13.90;99.90
4647;DHT22;2336;47.822;7.564;2023-04-29T01:29:21;13.90;99.90
4647;DHT22;2336;47.822;7.564;2023-04-29T01:31:56;13.90;99.90
4647;DHT22;2336;47.822;7.564;2023-04-29T01:34:30;13.80;99.90
4647;DHT22;2336;47.822;7.564;2023-04-29T01:37:06;13.70;99.90
4647;DHT22;2336;47.822;7.564;2023-04-29T01:39:40;13.70;99.90
4647;DHT22;2336;47.822;7.564;2023-04-29T01:42:15;13.70;99.90
4647;DHT22;2336;47.822;7.564;2023-04-29T01:44:43;13.60;99.90
4647;DHT22;2336;47.822;7.564;2023-04-29T01:47:13;13.60;99.90
4647;DHT22;2336;47.822;7.564;2023-04-29T01:49:40;13.50;99.90
4647;DHT22;2336;47.822;7.564;2023-04-29T01:52:07;13.50;99.90
4647;DHT22;2336;47.822;7.564;2023-04-29T01:54:35;13.50;99.90
4647;DHT22;2336;47.822;7.564;2023-04-29T01:57:02;13.50;99.90
4647;DHT22;2336;47.822;7.564;2023-04-29T01:59:30;13.50;99.90
4647;DHT22;2336;47.822;7.564;2023-04-29T02:01:56;13.50;99.90
4647;DHT22;2336;47.822;7.564;2023-04-29T02:04:23;13.50;99.90
4647;DHT22;2336;47.822;7.564;2023-04-29T02:06:50;13.50;99.90
4647;DHT22;2336;47.822;7.564;2023-04-29T02:09:17;13.50;99.90
4647;DHT22;2336;47.822;7.564;2023-04-29T02:11:45;13.50;99.90
4647;DHT22;2336;47.822;7.564;2023-04-29T02:14:13;13.60;99.90
4647;DHT22;2336;47.822;7.564;2023-04-29T02:16:42;13.70;99.90
4647;DHT22;2336;47.822;7.564;2023-04-29T02:19:09;13.70;99.90
4647;DHT22;2336;47.822;7.564;2023-04-29T02:21:36;13.70;99.90
4647;DHT22;2336;47.822;7.564;2023-04-29T02:24:04;13.70;99.90
4647;DHT22;2336;47.822;7.564;2023-04-29T02:26:31;13.70;99.90
4647;DHT22;2336;47.822;7.564;2023-04-29T02:28:59;13.70;99.90
4647;DHT22;2336;47.822;7.564;2023-04-29T02:31:28;13.70;99.90
4647;DHT22;2336;47.822;7.564;2023-04-29T02:33:54;13.70;99.90
4647;DHT22;2336;47.822;7.564;2023-04-29T02:36:21;13.70;99.90
4647;DHT22;2336;47.822;7.564;2023-04-29T02:38:49;13.70;99.90
4647;DHT22;2336;47.822;7.564;2023-04-29T02:41:16;13.70;99.90
4647;DHT22;2336;47.822;7.564;2023-04-29T02:43:43;13.70;99.90
4647;DHT22;2336;47.822;7.564;2023-04-29T02:46:11;13.70;99.90
4647;DHT22;2336;47.822;7.564;2023-04-29T02:48:38;13.70;99.90
4647;DHT22;2336;47.822;7.564;2023-04-29T02:51:05;13.70;99.90
4647;DHT22;2336;47.822;7.564;2023-04-29T02:53:32;13.70;99.90
4647;DHT22;2336;47.822;7.564;2023-04-29T02:55:58;13.70;99.90
4647;DHT22;2336;47.822;7.564;2023-04-29T02:58:26;13.70;99.90
4647;DHT22;2336;47.822;7.564;2023-04-29T03:00:52;13.60;99.90
4647;DHT22;2336;47.822;7.564;2023-04-29T03:03:20;13.60;99.90
4647;DHT22;2336;47.822;7.564;2023-04-29T03:05:47;13.50;99.90
4647;DHT22;2336;47.822;7.564;2023-04-29T03:08:14;13.50;99.90
4647;DHT22;2336;47.822;7.564;2023-04-29T03:10:41;13.40;99.90
4647;DHT22;2336;47.822;7.564;2023-04-29T03:13:08;13.40;99.90
4647;DHT22;2336;47.822;7.564;2023-04-29T03:15:34;13.30;99.90
4647;DHT22;2336;47.822;7.564;2023-04-29T03:18:01;13.30;99.90
4647;DHT22;2336;47.822;7.564;2023-04-29T03:20:30;13.40;99.90
4647;DHT22;2336;47.822;7.564;2023-04-29T03:22:58;13.40;99.90
4647;DHT22;2336;47.822;7.564;2023-04-29T03:25:25;13.40;99.90
4647;DHT22;2336;47.822;7.564;2023-04-29T03:27:53;13.50;99.90
4647;DHT22;2336;47.822;7.564;2023-04-29T03:30:19;13.40;99.90
4647;DHT22;2336;47.822;7.564;2023-04-29T03:32:46;13.40;99.90
4647;DHT22;2336;47.822;7.564;2023-04-29T03:35:13;13.30;99.90
4647;DHT22;2336;47.822;7.564;2023-04-29T03:37:41;13.30;99.90
4647;DHT22;2336;47.822;7.564;2023-04-29T03:40:10;13.20;99.90
4647;DHT22;2336;47.822;7.564;2023-04-29T03:42:37;13.20;99.90
4647;DHT22;2336;47.822;7.564;2023-04-29T03:45:04;13.10;99.90
4647;DHT22;2336;47.822;7.564;2023-04-29T03:47:31;13.10;99.90
4647;DHT22;2336;47.822;7.564;2023-04-29T03:49:58;13.00;99.90
4647;DHT22;2336;47.822;7.564;2023-04-29T03:52:25;13.00;99.90
4647;DHT22;2336;47.822;7.564;2023-04-29T03:54:53;12.90;99.90
4647;DHT22;2336;47.822;7.564;2023-04-29T03:57:19;12.90;99.90
4647;DHT22;2336;47.822;7.564;2023-04-29T03:59:46;12.80;99.90
4647;DHT22;2336;47.822;7.564;2023-04-29T04:02:14;12.70;99.90
4647;DHT22;2336;47.822;7.564;2023-04-29T04:04:41;12.60;99.90
4647;DHT22;2336;47.822;7.564;2023-04-29T04:07:08;12.50;99.90
4647;DHT22;2336;47.822;7.564;2023-04-29T04:09:36;12.50;99.90
4647;DHT22;2336;47.822;7.564;2023-04-29T04:12:05;12.40;99.90
4647;DHT22;2336;47.822;7.564;2023-04-29T04:14:32;12.30;99.90
4647;DHT22;2336;47.822;7.564;2023-04-29T04:16:59;12.30;99.90
4647;DHT22;2336;47.822;7.564;2023-04-29T04:19:25;12.30;99.90
4647;DHT22;2336;47.822;7.564;2023-04-29T04:21:53;12.20;99.90
4647;DHT22;2336;47.822;7.564;2023-04-29T04:24:20;12.20;99.90
4647;DHT22;2336;47.822;7.564;2023-04-29T04:26:47;12.20;99.90
4647;DHT22;2336;47.822;7.564;2023-04-29T04:29:15;12.20;99.90
4647;DHT22;2336;47.822;7.564;2023-04-29T04:31:41;12.10;99.90
4647;DHT22;2336;47.822;7.564;2023-04-29T04:34:08;12.10;99.90
4647;DHT22;2336;47.822;7.564;2023-04-29T04:36:35;12.10;99.90
4647;DHT22;2336;47.822;7.564;2023-04-29T04:39:02;12.00;99.90
4647;DHT22;2336;47.822;7.564;2023-04-29T04:41:29;12.00;99.90
4647;DHT22;2336;47.822;7.564;2023-04-29T04:43:56;12.10;99.90
4647;DHT22;2336;47.822;7.564;2023-04-29T04:46:24;12.10;99.90
4647;DHT22;2336;47.822;7.564;2023-04-29T04:48:51;12.10;99.90
4647;DHT22;2336;47.822;7.564;2023-04-29T04:51:18;12.10;99.90
4647;DHT22;2336;47.822;7.564;2023-04-29T04:53:45;12.10;99.90
4647;DHT22;2336;47.822;7.564;2023-04-29T04:56:11;12.10;99.90
4647;DHT22;2336;47.822;7.564;2023-04-29T04:58:38;12.00;99.90
4647;DHT22;2336;47.822;7.564;2023-04-29T05:01:05;11.90;99.90
4647;DHT22;2336;47.822;7.564;2023-04-29T05:03:33;12.00;99.90
4647;DHT22;2336;47.822;7.564;2023-04-29T05:06:00;11.90;99.90
4647;DHT22;2336;47.822;7.564;2023-04-29T05:08:26;12.00;99.90
4647;DHT22;2336;47.822;7.564;2023-04-29T05:10:53;12.00;99.90
4647;DHT22;2336;47.822;7.564;2023-04-29T05:13:20;12.00;99.90
4647;DHT22;2336;47.822;7.564;2023-04-29T05:15:47;12.10;99.90
4647;DHT22;2336;47.822;7.564;2023-04-29T05:18:13;12.10;99.90
4647;DHT22;2336;47.822;7.564;2023-04-29T05:20:41;12.20;99.90
4647;DHT22;2336;47.822;7.564;2023-04-29T05:23:08;12.30;99.90
4647;DHT22;2336;47.822;7.564;2023-04-29T05:25:35;12.50;99.90
4647;DHT22;2336;47.822;7.564;2023-04-29T05:28:02;12.60;99.90
4647;DHT22;2336;47.822;7.564;2023-04-29T05:30:29;12.70;99.90
4647;DHT22;2336;47.822;7.564;2023-04-29T05:32:56;12.80;99.90
4647;DHT22;2336;47.822;7.564;2023-04-29T05:35:23;12.80;99.90
4647;DHT22;2336;47.822;7.564;2023-04-29T05:37:51;12.80;99.90
4647;DHT22;2336;47.822;7.564;2023-04-29T05:40:17;12.90;99.90
4647;DHT22;2336;47.822;7.564;2023-04-29T05:42:44;13.00;99.90
4647;DHT22;2336;47.822;7.564;2023-04-29T05:45:11;13.00;99.90
4647;DHT22;2336;47.822;7.564;2023-04-29T05:47:38;13.10;99.90
4647;DHT22;2336;47.822;7.564;2023-04-29T05:50:05;13.10;99.90
4647;DHT22;2336;47.822;7.564;2023-04-29T05:52:33;13.20;99.90
4647;DHT22;2336;47.822;7.564;2023-04-29T05:55:01;13.30;99.90
4647;DHT22;2336;47.822;7.564;2023-04-29T05:57:28;13.40;99.90
4647;DHT22;2336;47.822;7.564;2023-04-29T05:59:54;13.40;99.90
4647;DHT22;2336;47.822;7.564;2023-04-29T06:02:22;13.50;99.90
4647;DHT22;2336;47.822;7.564;2023-04-29T06:04:48;13.50;99.90
4647;DHT22;2336;47.822;7.564;2023-04-29T06:07:16;13.50;99.90
4647;DHT22;2336;47.822;7.564;2023-04-29T06:09:43;13.50;99.90
4647;DHT22;2336;47.822;7.564;2023-04-29T06:12:11;13.50;99.90
4647;DHT22;2336;47.822;7.564;2023-04-29T06:14:38;13.50;99.90
4647;DHT22;2336;47.822;7.564;2023-04-29T06:17:05;13.50;99.90
4647;DHT22;2336;47.822;7.564;2023-04-29T06:19:31;13.50;99.90
4647;DHT22;2336;47.822;7.564;2023-04-29T06:21:58;13.50;99.90
4647;DHT22;2336;47.822;7.564;2023-04-29T06:24:25;13.50;99.90
4647;DHT22;2336;47.822;7.564;2023-04-29T06:26:52;13.50;99.90
4647;DHT22;2336;47.822;7.564;2023-04-29T06:29:20;13.50;99.90
4647;DHT22;2336;47.822;7.564;2023-04-29T06:31:47;13.50;99.90
4647;DHT22;2336;47.822;7.564;2023-04-29T06:34:13;13.50;99.90
4647;DHT22;2336;47.822;7.564;2023-04-29T06:36:40;13.50;99.90
4647;DHT22;2336;47.822;7.564;2023-04-29T06:39:07;13.60;99.90
4647;DHT22;2336;47.822;7.564;2023-04-29T06:41:33;13.60;99.90
4647;DHT22;2336;47.822;7.564;2023-04-29T06:44:01;13.70;99.90
4647;DHT22;2336;47.822;7.564;2023-04-29T06:46:29;13.70;99.90
4647;DHT22;2336;47.822;7.564;2023-04-29T06:48:56;13.80;99.90
4647;DHT22;2336;47.822;7.564;2023-04-29T06:51:22;13.70;99.90
4647;DHT22;2336;47.822;7.564;2023-04-29T06:53:49;13.80;99.90
4647;DHT22;2336;47.822;7.564;2023-04-29T06:56:16;13.90;99.90
4647;DHT22;2336;47.822;7.564;2023-04-29T06:58:43;14.00;99.90
4647;DHT22;2336;47.822;7.564;2023-04-29T07:01:09;14.10;99.90
4647;DHT22;2336;47.822;7.564;2023-04-29T07:03:37;14.20;99.90
4647;DHT22;2336;47.822;7.564;2023-04-29T07:06:04;14.30;99.90
4647;DHT22;2336;47.822;7.564;2023-04-29T07:08:31;14.40;99.90
4647;DHT22;2336;47.822;7.564;2023-04-29T07:10:58;14.50;99.90
4647;DHT22;2336;47.822;7.564;2023-04-29T07:13:25;14.40;99.90
4647;DHT22;2336;47.822;7.564;2023-04-29T07:15:51;14.40;99.90
4647;DHT22;2336;47.822;7.564;2023-04-29T07:18:18;14.50;99.90
4647;DHT22;2336;47.822;7.564;2023-04-29T07:20:46;14.50;99.90
4647;DHT22;2336;47.822;7.564;2023-04-29T07:23:15;14.50;99.90
4647;DHT22;2336;47.822;7.564;2023-04-29T07:25:42;14.50;99.90
4647;DHT22;2336;47.822;7.564;2023-04-29T07:28:08;14.50;99.90
4647;DHT22;2336;47.822;7.564;2023-04-29T07:30:35;14.40;99.90
4647;DHT22;2336;47.822;7.564;2023-04-29T07:33:02;14.50;99.90
4647;DHT22;2336;47.822;7.564;2023-04-29T07:35:29;14.50;99.90
4647;DHT22;2336;47.822;7.564;2023-04-29T07:37:57;14.60;99.90
4647;DHT22;2336;47.822;7.564;2023-04-29T07:40:24;14.70;99.90
4647;DHT22;2336;47.822;7.564;2023-04-29T07:42:51;14.80;99.90
4647;DHT22;2336;47.822;7.564;2023-04-29T07:45:17;15.00;99.90
4647;DHT22;2336;47.822;7.564;2023-04-29T07:47:44;15.10;99.90
4647;DHT22;2336;47.822;7.564;2023-04-29T07:50:11;15.40;99.90
4647;DHT22;2336;47.822;7.564;2023-04-29T07:52:38;15.40;99.90
4647;DHT22;2336;47.822;7.564;2023-04-29T07:55:07;15.40;99.90
4647;DHT22;2336;47.822;7.564;2023-04-29T07:57:34;15.50;99.90
4647;DHT22;2336;47.822;7.564;2023-04-29T08:00:01;15.60;99.90
4647;DHT22;2336;47.822;7.564;2023-04-29T08:02:28;15.60;99.90
4647;DHT22;2336;47.822;7.564;2023-04-29T08:04:55;15.70;99.90
4647;DHT22;2336;47.822;7.564;2023-04-29T08:07:21;15.90;99.90
4647;DHT22;2336;47.822;7.564;2023-04-29T08:09:48;15.80;99.90
4647;DHT22;2336;47.822;7.564;2023-04-29T08:12:16;15.80;99.90
4647;DHT22;2336;47.822;7.564;2023-04-29T08:14:43;15.80;99.90
4647;DHT22;2336;47.822;7.564;2023-04-29T08:17:09;15.80;99.90
4647;DHT22;2336;47.822;7.564;2023-04-29T08:19:36;15.70;99.90
4647;DHT22;2336;47.822;7.564;2023-04-29T08:22:03;15.60;99.90
4647;DHT22;2336;47.822;7.564;2023-04-29T08:24:30;15.60;99.90
4647;DHT22;2336;47.822;7.564;2023-04-29T08:26:58;15.60;99.90
4647;DHT22;2336;47.822;7.564;2023-04-29T08:29:26;15.60;99.90
4647;DHT22;2336;47.822;7.564;2023-04-29T08:31:53;15.60;99.90
4647;DHT22;2336;47.822;7.564;2023-04-29T08:34:19;15.60;99.90
4647;DHT22;2336;47.822;7.564;2023-04-29T08:36:46;15.70;99.90
4647;DHT22;2336;47.822;7.564;2023-04-29T08:39:13;15.80;99.90
4647;DHT22;2336;47.822;7.564;2023-04-29T08:41:40;15.80;99.90
4647;DHT22;2336;47.822;7.564;2023-04-29T08:44:08;15.90;99.90
4647;DHT22;2336;47.822;7.564;2023-04-29T08:46:37;15.90;99.90
4647;DHT22;2336;47.822;7.564;2023-04-29T08:49:05;16.10;99.90
4647;DHT22;2336;47.822;7.564;2023-04-29T08:51:32;16.10;99.90
4647;DHT22;2336;47.822;7.564;2023-04-29T08:53:59;16.10;99.90
4647;DHT22;2336;47.822;7.564;2023-04-29T08:56:27;16.00;99.90
4647;DHT22;2336;47.822;7.564;2023-04-29T08:58:56;16.00;99.90
4647;DHT22;2336;47.822;7.564;2023-04-29T09:01:25;16.10;99.90
4647;DHT22;2336;47.822;7.564;2023-04-29T09:04:02;16.10;99.90
4647;DHT22;2336;47.822;7.564;2023-04-29T09:06:30;16.00;99.90
4647;DHT22;2336;47.822;7.564;2023-04-29T09:08:58;16.10;99.90
4647;DHT22;2336;47.822;7.564;2023-04-29T09:11:26;16.30;99.90
4647;DHT22;2336;47.822;7.564;2023-04-29T09:13:58;16.40;99.90
4647;DHT22;2336;47.822;7.564;2023-04-29T09:16:24;16.40;99.90
4647;DHT22;2336;47.822;7.564;2023-04-29T09:18:51;16.40;99.90
4647;DHT22;2336;47.822;7.564;2023-04-29T09:21:22;16.50;99.90
4647;DHT22;2336;47.822;7.564;2023-04-29T09:23:52;16.50;99.90
4647;DHT22;2336;47.822;7.564;2023-04-29T09:26:19;16.60;99.90
4647;DHT22;2336;47.822;7.564;2023-04-29T09:28:46;16.60;99.90
4647;DHT22;2336;47.822;7.564;2023-04-29T09:31:14;16.70;99.90
4647;DHT22;2336;47.822;7.564;2023-04-29T09:33:51;16.70;99.90
4647;DHT22;2336;47.822;7.564;2023-04-29T09:36:39;16.80;99.90
4647;DHT22;2336;47.822;7.564;2023-04-29T09:39:08;16.90;99.90
4647;DHT22;2336;47.822;7.564;2023-04-29T09:41:58;17.00;99.90
4647;DHT22;2336;47.822;7.564;2023-04-29T09:44:28;16.90;99.90
4647;DHT22;2336;47.822;7.564;2023-04-29T09:46:56;17.10;99.90
4647;DHT22;2336;47.822;7.564;2023-04-29T09:49:24;17.00;99.90
4647;DHT22;2336;47.822;7.564;2023-04-29T09:51:54;17.10;99.90
4647;DHT22;2336;47.822;7.564;2023-04-29T09:54:21;17.10;99.90
4647;DHT22;2336;47.822;7.564;2023-04-29T09:56:49;17.10;99.90
4647;DHT22;2336;47.822;7.564;2023-04-29T09:59:16;17.10;99.90
4647;DHT22;2336;47.822;7.564;2023-04-29T10:01:45;17.30;99.90
4647;DHT22;2336;47.822;7.564;2023-04-29T10:04:14;17.30;99.90
4647;DHT22;2336;47.822;7.564;2023-04-29T10:06:42;17.30;99.90
4647;DHT22;2336;47.822;7.564;2023-04-29T10:09:12;17.50;99.90
4647;DHT22;2336;47.822;7.564;2023-04-29T10:11:41;17.50;99.90
4647;DHT22;2336;47.822;7.564;2023-04-29T10:14:11;17.50;99.90
4647;DHT22;2336;47.822;7.564;2023-04-29T10:16:44;17.40;99.90
4647;DHT22;2336;47.822;7.564;2023-04-29T10:19:11;17.50;99.90
4647;DHT22;2336;47.822;7.564;2023-04-29T10:21:41;17.60;99.90
4647;DHT22;2336;47.822;7.564;2023-04-29T10:24:08;17.50;99.90
4647;DHT22;2336;47.822;7.564;2023-04-29T10:26:41;17.50;99.90
4647;DHT22;2336;47.822;7.564;2023-04-29T10:29:10;17.60;99.90
4647;DHT22;2336;47.822;7.564;2023-04-29T10:31:40;17.60;99.90
4647;DHT22;2336;47.822;7.564;2023-04-29T10:34:06;17.60;99.90
4647;DHT22;2336;47.822;7.564;2023-04-29T10:36:34;17.70;99.90
4647;DHT22;2336;47.822;7.564;2023-04-29T10:39:03;17.90;99.90
4647;DHT22;2336;47.822;7.564;2023-04-29T10:41:33;17.90;99.90
4647;DHT22;2336;47.822;7.564;2023-04-29T10:44:03;18.00;99.90
4647;DHT22;2336;47.822;7.564;2023-04-29T10:46:30;18.00;99.90
4647;DHT22;2336;47.822;7.564;2023-04-29T10:49:00;18.20;99.90
4647;DHT22;2336;47.822;7.564;2023-04-29T10:51:30;18.20;99.90
4647;DHT22;2336;47.822;7.564;2023-04-29T10:53:58;18.10;99.90
4647;DHT22;2336;47.822;7.564;2023-04-29T10:56:38;18.00;99.90
4647;DHT22;2336;47.822;7.564;2023-04-29T10:59:09;18.10;99.90
4647;DHT22;2336;47.822;7.564;2023-04-29T11:01:44;18.00;99.90
4647;DHT22;2336;47.822;7.564;2023-04-29T11:04:12;18.10;99.90
4647;DHT22;2336;47.822;7.564;2023-04-29T11:06:44;18.10;99.90
4647;DHT22;2336;47.822;7.564;2023-04-29T11:09:13;18.50;99.90
4647;DHT22;2336;47.822;7.564;2023-04-29T11:11:45;18.50;99.90
4647;DHT22;2336;47.822;7.564;2023-04-29T11:14:20;18.50;99.90
4647;DHT22;2336;47.822;7.564;2023-04-29T11:16:50;18.60;99.90
4647;DHT22;2336;47.822;7.564;2023-04-29T11:19:17;18.60;99.90
4647;DHT22;2336;47.822;7.564;2023-04-29T11:21:45;18.50;99.90
4647;DHT22;2336;47.822;7.564;2023-04-29T11:24:12;18.70;99.90
4647;DHT22;2336;47.822;7.564;2023-04-29T11:26:40;18.70;99.90
4647;DHT22;2336;47.822;7.564;2023-04-29T11:29:07;18.90;99.90
4647;DHT22;2336;47.822;7.564;2023-04-29T11:31:36;19.20;99.90
4647;DHT22;2336;47.822;7.564;2023-04-29T11:34:04;19.60;99.90
4647;DHT22;2336;47.822;7.564;2023-04-29T11:36:32;19.50;99.90
4647;DHT22;2336;47.822;7.564;2023-04-29T11:39:00;19.10;99.90
4647;DHT22;2336;47.822;7.564;2023-04-29T11:41:27;19.10;99.90
4647;DHT22;2336;47.822;7.564;2023-04-29T11:43:57;19.40;99.90
4647;DHT22;2336;47.822;7.564;2023-04-29T11:46:24;19.70;99.90
4647;DHT22;2336;47.822;7.564;2023-04-29T11:48:56;19.60;99.90
4647;DHT22;2336;47.822;7.564;2023-04-29T11:51:24;19.60;99.90
4647;DHT22;2336;47.822;7.564;2023-04-29T11:53:51;19.50;99.90
4647;DHT22;2336;47.822;7.564;2023-04-29T11:56:20;19.30;99.90
4647;DHT22;2336;47.822;7.564;2023-04-29T11:58:48;19.30;99.90
4647;DHT22;2336;47.822;7.564;2023-04-29T12:01:15;19.10;99.90
4647;DHT22;2336;47.822;7.564;2023-04-29T12:03:43;19.20;99.90
4647;DHT22;2336;47.822;7.564;2023-04-29T12:06:12;19.80;99.90
4647;DHT22;2336;47.822;7.564;2023-04-29T12:08:40;19.60;99.90
4647;DHT22;2336;47.822;7.564;2023-04-29T12:11:07;19.20;99.90
4647;DHT22;2336;47.822;7.564;2023-04-29T12:13:33;19.30;99.90
4647;DHT22;2336;47.822;7.564;2023-04-29T12:16:01;19.60;99.90
4647;DHT22;2336;47.822;7.564;2023-04-29T12:18:29;19.80;99.90
4647;DHT22;2336;47.822;7.564;2023-04-29T12:20:56;19.80;99.90
4647;DHT22;2336;47.822;7.564;2023-04-29T12:23:24;19.60;99.90
4647;DHT22;2336;47.822;7.564;2023-04-29T12:25:54;19.50;99.90
4647;DHT22;2336;47.822;7.564;2023-04-29T12:28:21;19.60;99.90
4647;DHT22;2336;47.822;7.564;2023-04-29T12:30:49;19.80;99.90
4647;DHT22;2336;47.822;7.564;2023-04-29T12:33:18;19.90;99.90
4647;DHT22;2336;47.822;7.564;2023-04-29T12:35:46;19.80;99.90
4647;DHT22;2336;47.822;7.564;2023-04-29T12:38:15;19.60;99.90
4647;DHT22;2336;47.822;7.564;2023-04-29T12:40:44;19.30;99.90
4647;DHT22;2336;47.822;7.564;2023-04-29T12:43:11;19.30;99.90
4647;DHT22;2336;47.822;7.564;2023-04-29T12:45:38;19.50;99.90
4647;DHT22;2336;47.822;7.564;2023-04-29T12:48:05;19.40;99.90
4647;DHT22;2336;47.822;7.564;2023-04-29T12:50:33;19.60;99.90
4647;DHT22;2336;47.822;7.564;2023-04-29T12:53:01;19.80;99.90
4647;DHT22;2336;47.822;7.564;2023-04-29T12:55:30;19.80;99.90
4647;DHT22;2336;47.822;7.564;2023-04-29T12:57:58;19.80;99.90
4647;DHT22;2336;47.822;7.564;2023-04-29T13:00:25;19.80;99.90
4647;DHT22;2336;47.822;7.564;2023-04-29T13:02:52;19.80;99.90
4647;DHT22;2336;47.822;7.564;2023-04-29T13:05:18;19.90;99.90
4647;DHT22;2336;47.822;7.564;2023-04-29T13:07:46;19.90;99.90
4647;DHT22;2336;47.822;7.564;2023-04-29T13:10:13;19.80;99.90
4647;DHT22;2336;47.822;7.564;2023-04-29T13:12:40;19.70;99.90
4647;DHT22;2336;47.822;7.564;2023-04-29T13:15:09;19.50;99.90
4647;DHT22;2336;47.822;7.564;2023-04-29T13:17:36;19.40;99.90
4647;DHT22;2336;47.822;7.564;2023-04-29T13:20:04;19.40;99.90
4647;DHT22;2336;47.822;7.564;2023-04-29T13:22:31;19.40;99.90
4647;DHT22;2336;47.822;7.564;2023-04-29T13:24:58;19.40;99.90
4647;DHT22;2336;47.822;7.564;2023-04-29T13:27:25;19.20;99.90
4647;DHT22;2336;47.822;7.564;2023-04-29T13:29:52;19.10;99.90
4647;DHT22;2336;47.822;7.564;2023-04-29T13:32:20;19.00;99.90
4647;DHT22;2336;47.822;7.564;2023-04-29T13:34:48;19.00;99.90
4647;DHT22;2336;47.822;7.564;2023-04-29T13:37:15;19.20;99.90
4647;DHT22;2336;47.822;7.564;2023-04-29T13:39:42;19.30;99.90
4647;DHT22;2336;47.822;7.564;2023-04-29T13:42:09;19.20;99.90
4647;DHT22;2336;47.822;7.564;2023-04-29T13:44:35;19.40;99.90
4647;DHT22;2336;47.822;7.564;2023-04-29T13:47:02;19.50;99.90
4647;DHT22;2336;47.822;7.564;2023-04-29T13:49:31;19.40;99.90
4647;DHT22;2336;47.822;7.564;2023-04-29T13:51:59;19.50;99.90
4647;DHT22;2336;47.822;7.564;2023-04-29T13:54:25;19.50;99.90
4647;DHT22;2336;47.822;7.564;2023-04-29T13:56:52;19.40;99.90
4647;DHT22;2336;47.822;7.564;2023-04-29T13:59:19;19.30;99.90
4647;DHT22;2336;47.822;7.564;2023-04-29T14:01:45;19.50;99.90
4647;DHT22;2336;47.822;7.564;2023-04-29T14:04:13;19.40;99.90
4647;DHT22;2336;47.822;7.564;2023-04-29T14:06:41;19.20;99.90
4647;DHT22;2336;47.822;7.564;2023-04-29T14:09:08;19.20;99.90
4647;DHT22;2336;47.822;7.564;2023-04-29T14:11:35;19.10;99.90
4647;DHT22;2336;47.822;7.564;2023-04-29T14:14:02;19.10;99.90
4647;DHT22;2336;47.822;7.564;2023-04-29T14:16:28;19.00;99.90
4647;DHT22;2336;47.822;7.564;2023-04-29T14:18:55;19.00;99.90
4647;DHT22;2336;47.822;7.564;2023-04-29T14:21:22;18.80;99.90
4647;DHT22;2336;47.822;7.564;2023-04-29T14:23:50;18.80;99.90
4647;DHT22;2336;47.822;7.564;2023-04-29T14:26:17;18.60;99.90
4647;DHT22;2336;47.822;7.564;2023-04-29T14:28:43;18.50;99.90
4647;DHT22;2336;47.822;7.564;2023-04-29T14:31:10;18.40;99.90
4647;DHT22;2336;47.822;7.564;2023-04-29T14:33:38;18.40;99.90
4647;DHT22;2336;47.822;7.564;2023-04-29T14:36:05;18.60;99.90
4647;DHT22;2336;47.822;7.564;2023-04-29T14:38:33;18.80;99.90
4647;DHT22;2336;47.822;7.564;2023-04-29T14:41:01;19.00;99.90
4647;DHT22;2336;47.822;7.564;2023-04-29T14:43:27;18.80;99.90
4647;DHT22;2336;47.822;7.564;2023-04-29T14:45:54;18.90;99.90
4647;DHT22;2336;47.822;7.564;2023-04-29T14:48:21;19.00;99.90
4647;DHT22;2336;47.822;7.564;2023-04-29T14:50:48;18.90;99.90
4647;DHT22;2336;47.822;7.564;2023-04-29T14:53:15;18.90;99.90
4647;DHT22;2336;47.822;7.564;2023-04-29T14:55:42;18.70;99.90
4647;DHT22;2336;47.822;7.564;2023-04-29T14:58:10;18.60;99.90
4647;DHT22;2336;47.822;7.564;2023-04-29T15:00:36;18.50;99.90
4647;DHT22;2336;47.822;7.564;2023-04-29T15:03:03;18.60;99.90
4647;DHT22;2336;47.822;7.564;2023-04-29T15:05:30;18.70;99.90
4647;DHT22;2336;47.822;7.564;2023-04-29T15:07:57;18.80;99.90
4647;DHT22;2336;47.822;7.564;2023-04-29T15:10:24;18.50;99.90
4647;DHT22;2336;47.822;7.564;2023-04-29T15:12:51;18.40;99.90
4647;DHT22;2336;47.822;7.564;2023-04-29T15:15:20;18.40;99.90
4647;DHT22;2336;47.822;7.564;2023-04-29T15:17:46;18.30;99.90
4647;DHT22;2336;47.822;7.564;2023-04-29T15:20:13;18.10;99.90
4647;DHT22;2336;47.822;7.564;2023-04-29T15:22:40;18.10;99.90
4647;DHT22;2336;47.822;7.564;2023-04-29T15:25:07;18.10;99.90
4647;DHT22;2336;47.822;7.564;2023-04-29T15:27:35;18.10;99.90
4647;DHT22;2336;47.822;7.564;2023-04-29T15:30:03;18.00;99.90
4647;DHT22;2336;47.822;7.564;2023-04-29T15:32:31;18.10;99.90
4647;DHT22;2336;47.822;7.564;2023-04-29T15:34:58;18.00;99.90
4647;DHT22;2336;47.822;7.564;2023-04-29T15:37:25;18.00;99.90
4647;DHT22;2336;47.822;7.564;2023-04-29T15:39:52;17.80;99.90
4647;DHT22;2336;47.822;7.564;2023-04-29T15:42:19;17.70;99.90
4647;DHT22;2336;47.822;7.564;2023-04-29T15:44:45;17.60;99.90
4647;DHT22;2336;47.822;7.564;2023-04-29T15:47:12;17.60;99.90
4647;DHT22;2336;47.822;7.564;2023-04-29T15:49:40;17.50;99.90
4647;DHT22;2336;47.822;7.564;2023-04-29T15:52:07;17.60;99.90
4647;DHT22;2336;47.822;7.564;2023-04-29T15:54:34;17.50;99.90
4647;DHT22;2336;47.822;7.564;2023-04-29T15:57:01;17.50;99.90
4647;DHT22;2336;47.822;7.564;2023-04-29T15:59:28;17.50;99.90
4647;DHT22;2336;47.822;7.564;2023-04-29T16:01:55;17.40;99.90
4647;DHT22;2336;47.822;7.564;2023-04-29T16:04:22;17.30;99.90
4647;DHT22;2336;47.822;7.564;2023-04-29T16:06:51;17.40;99.90